sensor_id;sensor_type;location;lat;lon;timestamp;P1;durP1;ratioP1;P2;durP2;ratioP2
21804;SDS011;11064;47.102;15.452;2022-08-19T04:03:20;12.95;;;6.15;;
21804;SDS011;11064;47.102;15.452;2022-08-19T04:05:46;14.38;;;6.78;;
21804;SDS011;11064;47.102;15.452;2022-08-19T04:08:12;15.35;;;7.60;;
21804;SDS011;11064;47.102;15.452;2022-08-19T04:10:40;18.13;;;8.27;;
21804;SDS011;11064;47.102;15.452;2022-08-19T04:13:07;15.80;;;7.43;;
21804;SDS011;11064;47.102;15.452;2022-08-19T04:15:38;16.90;;;7.65;;
21804;SDS011;11064;47.102;15.452;2022-08-19T04:18:06;16.02;;;7.57;;
21804;SDS011;11064;47.102;15.452;2022-08-19T04:20:41;18.65;;;8.30;;
21804;SDS011;11064;47.102;15.452;2022-08-19T04:23:08;15.98;;;7.00;;
21804;SDS011;11064;47.102;15.452;2022-08-19T04:25:35;19.05;;;7.45;;
21804;SDS011;11064;47.102;15.452;2022-08-19T04:28:02;13.77;;;6.50;;
21804;SDS011;11064;47.102;15.452;2022-08-19T04:30:28;13.40;;;6.13;;
21804;SDS011;11064;47.102;15.452;2022-08-19T04:32:54;11.90;;;5.55;;
21804;SDS011;11064;47.102;15.452;2022-08-19T04:35:19;11.60;;;5.93;;
21804;SDS011;11064;47.102;15.452;2022-08-19T04:37:45;11.82;;;5.00;;
21804;SDS011;11064;47.102;15.452;2022-08-19T04:40:11;13.48;;;5.45;;
21804;SDS011;11064;47.102;15.452;2022-08-19T04:42:55;10.40;;;5.10;;
21804;SDS011;11064;47.102;15.452;2022-08-19T04:45:21;11.07;;;4.78;;
21804;SDS011;11064;47.102;15.452;2022-08-19T04:47:47;9.35;;;4.78;;
21804;SDS011;11064;47.102;15.452;2022-08-19T04:50:13;9.45;;;4.38;;
21804;SDS011;11064;47.102;15.452;2022-08-19T04:52:39;14.02;;;4.53;;
21804;SDS011;11064;47.102;15.452;2022-08-19T04:55:09;9.77;;;4.85;;
21804;SDS011;11064;47.102;15.452;2022-08-19T04:57:36;9.52;;;4.18;;
21804;SDS011;11064;47.102;15.452;2022-08-19T05:00:06;13.55;;;4.53;;
21804;SDS011;11064;47.102;15.452;2022-08-19T05:02:35;9.80;;;3.85;;
21804;SDS011;11064;47.102;15.452;2022-08-19T05:05:02;8.77;;;3.97;;
21804;SDS011;11064;47.102;15.452;2022-08-19T05:07:28;9.27;;;3.72;;
21804;SDS011;11064;47.102;15.452;2022-08-19T05:09:54;10.52;;;4.00;;
21804;SDS011;11064;47.102;15.452;2022-08-19T05:12:20;11.40;;;4.43;;
21804;SDS011;11064;47.102;15.452;2022-08-19T05:14:46;10.55;;;3.80;;
21804;SDS011;11064;47.102;15.452;2022-08-19T05:17:12;9.93;;;3.90;;
21804;SDS011;11064;47.102;15.452;2022-08-19T05:19:38;10.73;;;3.88;;
21804;SDS011;11064;47.102;15.452;2022-08-19T05:22:23;11.27;;;4.05;;
21804;SDS011;11064;47.102;15.452;2022-08-19T05:25:01;7.97;;;3.78;;
21804;SDS011;11064;47.102;15.452;2022-08-19T05:27:31;11.70;;;4.50;;
21804;SDS011;11064;47.102;15.452;2022-08-19T05:29:58;10.52;;;4.70;;
21804;SDS011;11064;47.102;15.452;2022-08-19T05:32:24;8.85;;;4.88;;
21804;SDS011;11064;47.102;15.452;2022-08-19T05:34:50;11.35;;;4.63;;
21804;SDS011;11064;47.102;15.452;2022-08-19T05:37:16;12.98;;;4.80;;
21804;SDS011;11064;47.102;15.452;2022-08-19T05:39:43;13.13;;;4.93;;
21804;SDS011;11064;47.102;15.452;2022-08-19T05:42:10;13.40;;;5.03;;
21804;SDS011;11064;47.102;15.452;2022-08-19T05:44:41;12.15;;;4.82;;
21804;SDS011;11064;47.102;15.452;2022-08-19T05:47:09;13.25;;;5.05;;
21804;SDS011;11064;47.102;15.452;2022-08-19T05:49:37;12.43;;;4.90;;
21804;SDS011;11064;47.102;15.452;2022-08-19T05:52:04;11.18;;;5.13;;
21804;SDS011;11064;47.102;15.452;2022-08-19T05:54:32;15.23;;;5.43;;
21804;SDS011;11064;47.102;15.452;2022-08-19T05:57:00;11.02;;;4.72;;
21804;SDS011;11064;47.102;15.452;2022-08-19T05:59:27;14.30;;;4.97;;
21804;SDS011;11064;47.102;15.452;2022-08-19T06:01:53;9.55;;;5.30;;
21804;SDS011;11064;47.102;15.452;2022-08-19T06:04:21;12.18;;;5.00;;
21804;SDS011;11064;47.102;15.452;2022-08-19T06:06:48;11.63;;;5.35;;
21804;SDS011;11064;47.102;15.452;2022-08-19T06:09:17;14.55;;;4.95;;
21804;SDS011;11064;47.102;15.452;2022-08-19T06:11:50;11.98;;;5.45;;
21804;SDS011;11064;47.102;15.452;2022-08-19T06:14:20;13.75;;;5.20;;
21804;SDS011;11064;47.102;15.452;2022-08-19T06:16:48;9.55;;;5.00;;
21804;SDS011;11064;47.102;15.452;2022-08-19T06:19:17;14.43;;;5.53;;
21804;SDS011;11064;47.102;15.452;2022-08-19T06:21:45;10.90;;;5.00;;
21804;SDS011;11064;47.102;15.452;2022-08-19T06:24:14;13.32;;;5.53;;
21804;SDS011;11064;47.102;15.452;2022-08-19T06:26:43;12.43;;;5.13;;
21804;SDS011;11064;47.102;15.452;2022-08-19T06:29:12;11.43;;;5.03;;
21804;SDS011;11064;47.102;15.452;2022-08-19T06:31:40;9.35;;;4.80;;
21804;SDS011;11064;47.102;15.452;2022-08-19T06:34:08;12.63;;;5.10;;
21804;SDS011;11064;47.102;15.452;2022-08-19T06:36:37;11.88;;;5.05;;
21804;SDS011;11064;47.102;15.452;2022-08-19T06:41:34;10.27;;;4.45;;
21804;SDS011;11064;47.102;15.452;2022-08-19T06:44:01;11.00;;;4.28;;
21804;SDS011;11064;47.102;15.452;2022-08-19T06:46:28;9.20;;;4.60;;
21804;SDS011;11064;47.102;15.452;2022-08-19T06:48:55;12.38;;;4.28;;
21804;SDS011;11064;47.102;15.452;2022-08-19T06:51:22;9.73;;;4.28;;
21804;SDS011;11064;47.102;15.452;2022-08-19T06:53:49;9.45;;;4.05;;
21804;SDS011;11064;47.102;15.452;2022-08-19T06:56:18;8.30;;;4.35;;
21804;SDS011;11064;47.102;15.452;2022-08-19T06:58:50;11.73;;;4.22;;
21804;SDS011;11064;47.102;15.452;2022-08-19T07:01:18;9.90;;;4.03;;
21804;SDS011;11064;47.102;15.452;2022-08-19T07:03:45;10.93;;;3.75;;
21804;SDS011;11064;47.102;15.452;2022-08-19T07:06:16;8.93;;;3.72;;
21804;SDS011;11064;47.102;15.452;2022-08-19T07:08:44;10.05;;;3.80;;
21804;SDS011;11064;47.102;15.452;2022-08-19T07:11:13;7.85;;;3.63;;
21804;SDS011;11064;47.102;15.452;2022-08-19T07:13:45;7.20;;;3.58;;
21804;SDS011;11064;47.102;15.452;2022-08-19T07:16:14;8.60;;;3.80;;
21804;SDS011;11064;47.102;15.452;2022-08-19T07:18:42;10.95;;;3.80;;
21804;SDS011;11064;47.102;15.452;2022-08-19T07:21:13;12.82;;;4.00;;
21804;SDS011;11064;47.102;15.452;2022-08-19T07:23:44;11.32;;;3.70;;
21804;SDS011;11064;47.102;15.452;2022-08-19T07:26:18;13.30;;;3.83;;
21804;SDS011;11064;47.102;15.452;2022-08-19T07:28:46;9.75;;;3.80;;
21804;SDS011;11064;47.102;15.452;2022-08-19T07:31:13;5.90;;;3.92;;
21804;SDS011;11064;47.102;15.452;2022-08-19T07:33:44;7.32;;;3.78;;
21804;SDS011;11064;47.102;15.452;2022-08-19T07:36:12;9.13;;;4.28;;
21804;SDS011;11064;47.102;15.452;2022-08-19T07:38:40;10.40;;;4.47;;
21804;SDS011;11064;47.102;15.452;2022-08-19T07:41:09;10.23;;;4.18;;
21804;SDS011;11064;47.102;15.452;2022-08-19T07:43:38;10.43;;;4.05;;
21804;SDS011;11064;47.102;15.452;2022-08-19T07:46:04;12.52;;;4.43;;
21804;SDS011;11064;47.102;15.452;2022-08-19T07:48:31;7.72;;;3.80;;
21804;SDS011;11064;47.102;15.452;2022-08-19T07:50:59;8.88;;;4.32;;
21804;SDS011;11064;47.102;15.452;2022-08-19T07:53:27;8.20;;;3.72;;
21804;SDS011;11064;47.102;15.452;2022-08-19T07:55:54;7.57;;;4.05;;
21804;SDS011;11064;47.102;15.452;2022-08-19T07:58:24;9.30;;;4.13;;
21804;SDS011;11064;47.102;15.452;2022-08-19T08:00:50;6.70;;;3.45;;
21804;SDS011;11064;47.102;15.452;2022-08-19T08:03:17;9.50;;;3.55;;
21804;SDS011;11064;47.102;15.452;2022-08-19T08:05:45;6.65;;;4.05;;
21804;SDS011;11064;47.102;15.452;2022-08-19T08:08:30;7.25;;;4.32;;
21804;SDS011;11064;47.102;15.452;2022-08-19T08:11:02;10.55;;;4.05;;
21804;SDS011;11064;47.102;15.452;2022-08-19T08:13:29;8.48;;;4.18;;
21804;SDS011;11064;47.102;15.452;2022-08-19T08:15:55;7.15;;;3.50;;
21804;SDS011;11064;47.102;15.452;2022-08-19T08:18:22;8.82;;;3.72;;
21804;SDS011;11064;47.102;15.452;2022-08-19T08:20:49;10.18;;;3.78;;
21804;SDS011;11064;47.102;15.452;2022-08-19T08:23:15;9.05;;;4.30;;
21804;SDS011;11064;47.102;15.452;2022-08-19T08:25:56;8.40;;;4.53;;
21804;SDS011;11064;47.102;15.452;2022-08-19T08:28:23;8.43;;;3.92;;
21804;SDS011;11064;47.102;15.452;2022-08-19T08:30:50;8.98;;;4.50;;
21804;SDS011;11064;47.102;15.452;2022-08-19T08:33:18;9.23;;;3.72;;
21804;SDS011;11064;47.102;15.452;2022-08-19T08:35:46;6.75;;;3.40;;
21804;SDS011;11064;47.102;15.452;2022-08-19T08:38:13;7.55;;;3.47;;
21804;SDS011;11064;47.102;15.452;2022-08-19T08:40:44;7.05;;;3.50;;
21804;SDS011;11064;47.102;15.452;2022-08-19T08:43:19;9.13;;;3.78;;
21804;SDS011;11064;47.102;15.452;2022-08-19T08:51:21;7.43;;;3.40;;
21804;SDS011;11064;47.102;15.452;2022-08-19T08:53:52;7.75;;;3.65;;
21804;SDS011;11064;47.102;15.452;2022-08-19T08:56:18;7.13;;;3.80;;
21804;SDS011;11064;47.102;15.452;2022-08-19T08:58:47;10.13;;;3.90;;
21804;SDS011;11064;47.102;15.452;2022-08-19T09:01:19;9.38;;;3.40;;
21804;SDS011;11064;47.102;15.452;2022-08-19T09:03:45;7.57;;;3.70;;
21804;SDS011;11064;47.102;15.452;2022-08-19T09:06:26;8.52;;;3.63;;
21804;SDS011;11064;47.102;15.452;2022-08-19T09:18:13;9.40;;;4.07;;
21804;SDS011;11064;47.102;15.452;2022-08-19T09:20:41;7.18;;;3.50;;
21804;SDS011;11064;47.102;15.452;2022-08-19T09:23:07;10.55;;;3.45;;
21804;SDS011;11064;47.102;15.452;2022-08-19T09:25:35;8.32;;;3.83;;
21804;SDS011;11064;47.102;15.452;2022-08-19T09:28:01;7.63;;;3.30;;
21804;SDS011;11064;47.102;15.452;2022-08-19T09:30:30;7.70;;;3.45;;
21804;SDS011;11064;47.102;15.452;2022-08-19T09:32:59;7.47;;;3.30;;
21804;SDS011;11064;47.102;15.452;2022-08-19T09:35:25;11.57;;;3.40;;
21804;SDS011;11064;47.102;15.452;2022-08-19T09:37:54;8.18;;;3.78;;
21804;SDS011;11064;47.102;15.452;2022-08-19T09:40:22;9.02;;;3.88;;
21804;SDS011;11064;47.102;15.452;2022-08-19T09:42:47;10.85;;;4.22;;
21804;SDS011;11064;47.102;15.452;2022-08-19T09:45:14;13.63;;;4.70;;
21804;SDS011;11064;47.102;15.452;2022-08-19T09:47:41;9.88;;;3.95;;
21804;SDS011;11064;47.102;15.452;2022-08-19T09:50:09;8.32;;;3.70;;
21804;SDS011;11064;47.102;15.452;2022-08-19T09:52:37;10.07;;;3.63;;
21804;SDS011;11064;47.102;15.452;2022-08-19T09:55:04;7.70;;;3.50;;
21804;SDS011;11064;47.102;15.452;2022-08-19T09:57:32;7.63;;;3.72;;
21804;SDS011;11064;47.102;15.452;2022-08-19T09:59:58;9.65;;;3.35;;
21804;SDS011;11064;47.102;15.452;2022-08-19T10:02:24;6.18;;;3.58;;
21804;SDS011;11064;47.102;15.452;2022-08-19T10:04:50;6.05;;;3.20;;
21804;SDS011;11064;47.102;15.452;2022-08-19T10:07:34;12.10;;;3.60;;
21804;SDS011;11064;47.102;15.452;2022-08-19T10:10:01;9.27;;;3.38;;
21804;SDS011;11064;47.102;15.452;2022-08-19T10:12:31;10.65;;;3.20;;
21804;SDS011;11064;47.102;15.452;2022-08-19T10:14:59;8.43;;;3.30;;
21804;SDS011;11064;47.102;15.452;2022-08-19T10:17:25;6.43;;;3.17;;
21804;SDS011;11064;47.102;15.452;2022-08-19T10:19:51;4.38;;;3.00;;
21804;SDS011;11064;47.102;15.452;2022-08-19T10:22:18;6.13;;;3.38;;
21804;SDS011;11064;47.102;15.452;2022-08-19T10:24:47;6.25;;;3.33;;
21804;SDS011;11064;47.102;15.452;2022-08-19T10:27:14;10.45;;;3.55;;
21804;SDS011;11064;47.102;15.452;2022-08-19T10:29:40;6.25;;;3.40;;
21804;SDS011;11064;47.102;15.452;2022-08-19T10:32:07;8.30;;;3.53;;
21804;SDS011;11064;47.102;15.452;2022-08-19T10:34:35;10.15;;;3.15;;
21804;SDS011;11064;47.102;15.452;2022-08-19T10:37:02;7.80;;;3.22;;
21804;SDS011;11064;47.102;15.452;2022-08-19T10:39:34;8.63;;;2.85;;
21804;SDS011;11064;47.102;15.452;2022-08-19T10:42:07;8.57;;;2.75;;
21804;SDS011;11064;47.102;15.452;2022-08-19T10:44:35;10.23;;;2.95;;
21804;SDS011;11064;47.102;15.452;2022-08-19T10:47:01;8.60;;;2.92;;
21804;SDS011;11064;47.102;15.452;2022-08-19T10:49:28;8.27;;;2.90;;
21804;SDS011;11064;47.102;15.452;2022-08-19T10:51:55;6.82;;;2.67;;
21804;SDS011;11064;47.102;15.452;2022-08-19T10:54:40;5.90;;;2.72;;
21804;SDS011;11064;47.102;15.452;2022-08-19T10:57:24;10.35;;;3.45;;
21804;SDS011;11064;47.102;15.452;2022-08-19T10:59:57;8.77;;;3.28;;
21804;SDS011;11064;47.102;15.452;2022-08-19T11:02:23;9.43;;;3.38;;
21804;SDS011;11064;47.102;15.452;2022-08-19T11:04:49;10.45;;;2.85;;
21804;SDS011;11064;47.102;15.452;2022-08-19T11:07:15;9.25;;;2.97;;
21804;SDS011;11064;47.102;15.452;2022-08-19T11:09:42;8.55;;;2.72;;
21804;SDS011;11064;47.102;15.452;2022-08-19T11:12:08;8.57;;;2.65;;
21804;SDS011;11064;47.102;15.452;2022-08-19T11:14:35;9.02;;;2.50;;
21804;SDS011;11064;47.102;15.452;2022-08-19T11:17:02;12.52;;;2.97;;
21804;SDS011;11064;47.102;15.452;2022-08-19T11:19:29;10.23;;;2.65;;
21804;SDS011;11064;47.102;15.452;2022-08-19T11:21:55;8.05;;;2.60;;
21804;SDS011;11064;47.102;15.452;2022-08-19T11:24:21;6.88;;;2.78;;
21804;SDS011;11064;47.102;15.452;2022-08-19T11:26:50;6.93;;;2.50;;
21804;SDS011;11064;47.102;15.452;2022-08-19T11:29:18;7.45;;;2.17;;
21804;SDS011;11064;47.102;15.452;2022-08-19T11:31:46;7.60;;;2.35;;
21804;SDS011;11064;47.102;15.452;2022-08-19T11:34:15;9.02;;;2.45;;
21804;SDS011;11064;47.102;15.452;2022-08-19T11:36:48;9.40;;;2.78;;
21804;SDS011;11064;47.102;15.452;2022-08-19T11:39:16;9.95;;;2.20;;
21804;SDS011;11064;47.102;15.452;2022-08-19T11:41:45;8.67;;;2.70;;
21804;SDS011;11064;47.102;15.452;2022-08-19T11:44:10;7.47;;;2.10;;
21804;SDS011;11064;47.102;15.452;2022-08-19T11:46:39;6.68;;;2.08;;
21804;SDS011;11064;47.102;15.452;2022-08-19T11:49:06;7.63;;;2.40;;
21804;SDS011;11064;47.102;15.452;2022-08-19T11:51:35;8.52;;;2.35;;
21804;SDS011;11064;47.102;15.452;2022-08-19T11:54:01;8.88;;;2.40;;
21804;SDS011;11064;47.102;15.452;2022-08-19T11:56:29;7.93;;;2.20;;
21804;SDS011;11064;47.102;15.452;2022-08-19T11:58:55;6.50;;;2.00;;
21804;SDS011;11064;47.102;15.452;2022-08-19T12:01:22;9.27;;;2.88;;
21804;SDS011;11064;47.102;15.452;2022-08-19T12:03:51;10.18;;;2.47;;
21804;SDS011;11064;47.102;15.452;2022-08-19T12:06:20;7.78;;;2.35;;
21804;SDS011;11064;47.102;15.452;2022-08-19T12:08:53;9.13;;;2.47;;
21804;SDS011;11064;47.102;15.452;2022-08-19T12:11:31;9.43;;;2.35;;
21804;SDS011;11064;47.102;15.452;2022-08-19T12:13:57;11.48;;;2.85;;
21804;SDS011;11064;47.102;15.452;2022-08-19T12:16:24;8.13;;;2.60;;
21804;SDS011;11064;47.102;15.452;2022-08-19T12:18:53;6.78;;;2.38;;
21804;SDS011;11064;47.102;15.452;2022-08-19T12:21:22;11.73;;;2.63;;
21804;SDS011;11064;47.102;15.452;2022-08-19T12:23:52;8.15;;;3.03;;
21804;SDS011;11064;47.102;15.452;2022-08-19T12:26:19;13.10;;;2.60;;
21804;SDS011;11064;47.102;15.452;2022-08-19T12:28:46;9.00;;;2.47;;
21804;SDS011;11064;47.102;15.452;2022-08-19T12:31:13;10.38;;;2.38;;
21804;SDS011;11064;47.102;15.452;2022-08-19T12:33:39;9.75;;;2.22;;
21804;SDS011;11064;47.102;15.452;2022-08-19T12:36:07;8.00;;;2.20;;
21804;SDS011;11064;47.102;15.452;2022-08-19T12:38:35;8.55;;;2.28;;
21804;SDS011;11064;47.102;15.452;2022-08-19T12:41:03;8.18;;;2.10;;
21804;SDS011;11064;47.102;15.452;2022-08-19T12:43:30;7.68;;;2.50;;
21804;SDS011;11064;47.102;15.452;2022-08-19T12:45:56;14.63;;;2.70;;
21804;SDS011;11064;47.102;15.452;2022-08-19T12:48:22;7.32;;;2.50;;
21804;SDS011;11064;47.102;15.452;2022-08-19T12:50:48;11.07;;;2.58;;
21804;SDS011;11064;47.102;15.452;2022-08-19T12:53:14;9.57;;;2.35;;
21804;SDS011;11064;47.102;15.452;2022-08-19T12:55:40;9.65;;;2.33;;
21804;SDS011;11064;47.102;15.452;2022-08-19T12:58:08;10.18;;;2.47;;
21804;SDS011;11064;47.102;15.452;2022-08-19T13:00:35;9.35;;;2.20;;
21804;SDS011;11064;47.102;15.452;2022-08-19T13:03:01;8.93;;;2.22;;
21804;SDS011;11064;47.102;15.452;2022-08-19T13:05:29;5.55;;;2.00;;
21804;SDS011;11064;47.102;15.452;2022-08-19T13:07:57;9.98;;;2.67;;
21804;SDS011;11064;47.102;15.452;2022-08-19T13:10:25;8.48;;;2.38;;
21804;SDS011;11064;47.102;15.452;2022-08-19T13:12:54;8.03;;;2.20;;
21804;SDS011;11064;47.102;15.452;2022-08-19T13:15:21;9.93;;;2.45;;
21804;SDS011;11064;47.102;15.452;2022-08-19T13:17:48;7.05;;;2.00;;
21804;SDS011;11064;47.102;15.452;2022-08-19T13:20:17;7.72;;;2.13;;
21804;SDS011;11064;47.102;15.452;2022-08-19T13:22:44;6.22;;;2.20;;
21804;SDS011;11064;47.102;15.452;2022-08-19T13:25:11;8.07;;;2.55;;
21804;SDS011;11064;47.102;15.452;2022-08-19T13:27:38;9.80;;;2.70;;
21804;SDS011;11064;47.102;15.452;2022-08-19T13:30:06;10.98;;;2.53;;
21804;SDS011;11064;47.102;15.452;2022-08-19T13:32:52;11.10;;;2.60;;
21804;SDS011;11064;47.102;15.452;2022-08-19T13:35:40;8.98;;;2.38;;
21804;SDS011;11064;47.102;15.452;2022-08-19T13:38:09;8.25;;;2.40;;
21804;SDS011;11064;47.102;15.452;2022-08-19T13:40:36;12.88;;;3.03;;
21804;SDS011;11064;47.102;15.452;2022-08-19T13:43:03;10.00;;;2.60;;
21804;SDS011;11064;47.102;15.452;2022-08-19T13:45:30;8.40;;;2.65;;
21804;SDS011;11064;47.102;15.452;2022-08-19T13:48:01;10.70;;;2.63;;
21804;SDS011;11064;47.102;15.452;2022-08-19T13:50:33;9.25;;;2.38;;
21804;SDS011;11064;47.102;15.452;2022-08-19T13:53:04;12.50;;;2.55;;
21804;SDS011;11064;47.102;15.452;2022-08-19T13:55:30;7.25;;;2.30;;
21804;SDS011;11064;47.102;15.452;2022-08-19T13:57:57;6.70;;;2.35;;
21804;SDS011;11064;47.102;15.452;2022-08-19T14:00:26;9.23;;;2.60;;
21804;SDS011;11064;47.102;15.452;2022-08-19T14:02:54;14.07;;;2.50;;
21804;SDS011;11064;47.102;15.452;2022-08-19T14:05:21;9.38;;;2.65;;
21804;SDS011;11064;47.102;15.452;2022-08-19T14:07:49;8.55;;;2.60;;
21804;SDS011;11064;47.102;15.452;2022-08-19T14:10:15;8.90;;;2.70;;
21804;SDS011;11064;47.102;15.452;2022-08-19T14:12:42;12.48;;;2.70;;
21804;SDS011;11064;47.102;15.452;2022-08-19T14:15:08;8.25;;;2.40;;
21804;SDS011;11064;47.102;15.452;2022-08-19T14:17:37;10.45;;;3.00;;
21804;SDS011;11064;47.102;15.452;2022-08-19T14:20:06;10.50;;;2.72;;
21804;SDS011;11064;47.102;15.452;2022-08-19T14:22:34;11.95;;;2.45;;
21804;SDS011;11064;47.102;15.452;2022-08-19T14:25:02;12.55;;;2.53;;
21804;SDS011;11064;47.102;15.452;2022-08-19T14:27:29;13.30;;;3.05;;
21804;SDS011;11064;47.102;15.452;2022-08-19T14:29:55;13.55;;;2.83;;
21804;SDS011;11064;47.102;15.452;2022-08-19T14:32:20;12.15;;;2.65;;
21804;SDS011;11064;47.102;15.452;2022-08-19T14:34:46;9.85;;;2.58;;
21804;SDS011;11064;47.102;15.452;2022-08-19T14:37:12;11.98;;;3.00;;
21804;SDS011;11064;47.102;15.452;2022-08-19T14:39:42;8.70;;;2.80;;
21804;SDS011;11064;47.102;15.452;2022-08-19T14:42:10;6.78;;;2.53;;
21804;SDS011;11064;47.102;15.452;2022-08-19T14:44:36;6.18;;;2.53;;
21804;SDS011;11064;47.102;15.452;2022-08-19T14:47:02;15.38;;;2.80;;
21804;SDS011;11064;47.102;15.452;2022-08-19T14:49:28;8.50;;;2.60;;
21804;SDS011;11064;47.102;15.452;2022-08-19T14:51:53;9.07;;;2.78;;
21804;SDS011;11064;47.102;15.452;2022-08-19T14:54:20;8.02;;;2.75;;
21804;SDS011;11064;47.102;15.452;2022-08-19T14:56:46;12.05;;;2.72;;
21804;SDS011;11064;47.102;15.452;2022-08-19T14:59:13;9.45;;;2.90;;
21804;SDS011;11064;47.102;15.452;2022-08-19T15:01:38;9.90;;;2.90;;
21804;SDS011;11064;47.102;15.452;2022-08-19T15:04:04;15.63;;;3.22;;
21804;SDS011;11064;47.102;15.452;2022-08-19T15:06:30;8.65;;;2.47;;
21804;SDS011;11064;47.102;15.452;2022-08-19T15:08:56;10.80;;;2.60;;
21804;SDS011;11064;47.102;15.452;2022-08-19T15:11:23;11.45;;;3.08;;
21804;SDS011;11064;47.102;15.452;2022-08-19T15:13:51;10.43;;;3.42;;
21804;SDS011;11064;47.102;15.452;2022-08-19T15:16:18;9.98;;;2.67;;
21804;SDS011;11064;47.102;15.452;2022-08-19T15:18:46;10.50;;;3.00;;
21804;SDS011;11064;47.102;15.452;2022-08-19T15:21:14;10.82;;;2.83;;
21804;SDS011;11064;47.102;15.452;2022-08-19T15:23:47;9.70;;;2.40;;
21804;SDS011;11064;47.102;15.452;2022-08-19T15:26:15;11.43;;;3.47;;
21804;SDS011;11064;47.102;15.452;2022-08-19T15:28:42;8.02;;;2.63;;
21804;SDS011;11064;47.102;15.452;2022-08-19T15:31:08;13.00;;;2.83;;
21804;SDS011;11064;47.102;15.452;2022-08-19T15:33:36;12.07;;;3.38;;
21804;SDS011;11064;47.102;15.452;2022-08-19T15:36:03;12.57;;;2.70;;
21804;SDS011;11064;47.102;15.452;2022-08-19T15:38:30;8.45;;;2.78;;
21804;SDS011;11064;47.102;15.452;2022-08-19T15:40:59;12.75;;;2.88;;
21804;SDS011;11064;47.102;15.452;2022-08-19T15:43:44;11.63;;;2.90;;
21804;SDS011;11064;47.102;15.452;2022-08-19T15:46:10;9.80;;;2.67;;
21804;SDS011;11064;47.102;15.452;2022-08-19T15:48:37;9.95;;;2.90;;
21804;SDS011;11064;47.102;15.452;2022-08-19T15:51:03;8.57;;;2.70;;
21804;SDS011;11064;47.102;15.452;2022-08-19T15:53:28;9.77;;;2.88;;
21804;SDS011;11064;47.102;15.452;2022-08-19T15:55:54;11.63;;;3.03;;
21804;SDS011;11064;47.102;15.452;2022-08-19T15:58:20;10.52;;;2.80;;
21804;SDS011;11064;47.102;15.452;2022-08-19T16:01:05;6.82;;;3.10;;
21804;SDS011;11064;47.102;15.452;2022-08-19T16:03:51;11.75;;;2.80;;
21804;SDS011;11064;47.102;15.452;2022-08-19T16:06:39;9.68;;;3.08;;
21804;SDS011;11064;47.102;15.452;2022-08-19T16:09:08;10.23;;;2.63;;
21804;SDS011;11064;47.102;15.452;2022-08-19T16:11:34;13.98;;;3.35;;
21804;SDS011;11064;47.102;15.452;2022-08-19T16:14:01;12.40;;;3.20;;
21804;SDS011;11064;47.102;15.452;2022-08-19T16:16:28;12.68;;;3.17;;
21804;SDS011;11064;47.102;15.452;2022-08-19T16:18:57;14.68;;;3.08;;
21804;SDS011;11064;47.102;15.452;2022-08-19T16:21:25;9.27;;;2.78;;
21804;SDS011;11064;47.102;15.452;2022-08-19T16:23:57;9.43;;;3.25;;
21804;SDS011;11064;47.102;15.452;2022-08-19T16:26:25;7.88;;;3.20;;
21804;SDS011;11064;47.102;15.452;2022-08-19T16:28:56;9.93;;;3.10;;
21804;SDS011;11064;47.102;15.452;2022-08-19T16:31:23;10.45;;;3.47;;
21804;SDS011;11064;47.102;15.452;2022-08-19T16:33:49;12.30;;;3.05;;
21804;SDS011;11064;47.102;15.452;2022-08-19T16:36:15;11.68;;;2.60;;
21804;SDS011;11064;47.102;15.452;2022-08-19T16:38:42;12.45;;;2.92;;
21804;SDS011;11064;47.102;15.452;2022-08-19T16:41:10;11.35;;;2.83;;
21804;SDS011;11064;47.102;15.452;2022-08-19T16:43:38;11.02;;;3.30;;
21804;SDS011;11064;47.102;15.452;2022-08-19T16:46:06;6.72;;;3.00;;
21804;SDS011;11064;47.102;15.452;2022-08-19T16:48:33;10.13;;;3.10;;
21804;SDS011;11064;47.102;15.452;2022-08-19T16:51:03;9.82;;;2.80;;
21804;SDS011;11064;47.102;15.452;2022-08-19T16:53:30;9.52;;;3.00;;
21804;SDS011;11064;47.102;15.452;2022-08-19T16:55:57;10.88;;;3.15;;
21804;SDS011;11064;47.102;15.452;2022-08-19T16:58:26;8.15;;;2.72;;
21804;SDS011;11064;47.102;15.452;2022-08-19T17:03:20;11.88;;;3.17;;
21804;SDS011;11064;47.102;15.452;2022-08-19T17:05:50;8.82;;;2.90;;
21804;SDS011;11064;47.102;15.452;2022-08-19T17:08:22;9.57;;;2.90;;
21804;SDS011;11064;47.102;15.452;2022-08-19T17:10:54;8.70;;;3.13;;
21804;SDS011;11064;47.102;15.452;2022-08-19T17:13:21;12.25;;;3.15;;
21804;SDS011;11064;47.102;15.452;2022-08-19T17:15:48;13.43;;;3.35;;
21804;SDS011;11064;47.102;15.452;2022-08-19T17:18:15;7.45;;;3.10;;
21804;SDS011;11064;47.102;15.452;2022-08-19T17:20:42;13.10;;;3.35;;
21804;SDS011;11064;47.102;15.452;2022-08-19T17:23:10;12.25;;;3.47;;
21804;SDS011;11064;47.102;15.452;2022-08-19T17:25:37;14.02;;;3.42;;
21804;SDS011;11064;47.102;15.452;2022-08-19T17:28:06;9.23;;;3.40;;
21804;SDS011;11064;47.102;15.452;2022-08-19T17:30:34;14.18;;;3.80;;
21804;SDS011;11064;47.102;15.452;2022-08-19T17:33:01;13.75;;;3.83;;
21804;SDS011;11064;47.102;15.452;2022-08-19T17:35:28;11.40;;;3.58;;
21804;SDS011;11064;47.102;15.452;2022-08-19T17:37:55;10.75;;;3.50;;
21804;SDS011;11064;47.102;15.452;2022-08-19T17:40:22;10.63;;;3.30;;
21804;SDS011;11064;47.102;15.452;2022-08-19T17:42:48;8.65;;;3.35;;
21804;SDS011;11064;47.102;15.452;2022-08-19T17:45:15;14.18;;;3.53;;
21804;SDS011;11064;47.102;15.452;2022-08-19T17:47:41;13.63;;;3.63;;
21804;SDS011;11064;47.102;15.452;2022-08-19T17:50:09;10.98;;;3.60;;
21804;SDS011;11064;47.102;15.452;2022-08-19T17:52:37;11.65;;;3.33;;
21804;SDS011;11064;47.102;15.452;2022-08-19T17:55:04;12.88;;;3.60;;
21804;SDS011;11064;47.102;15.452;2022-08-19T17:57:31;13.15;;;3.70;;
21804;SDS011;11064;47.102;15.452;2022-08-19T17:59:57;12.30;;;3.20;;
21804;SDS011;11064;47.102;15.452;2022-08-19T18:02:23;15.25;;;3.80;;
21804;SDS011;11064;47.102;15.452;2022-08-19T18:04:49;7.80;;;3.47;;
21804;SDS011;11064;47.102;15.452;2022-08-19T18:07:16;11.30;;;3.67;;
21804;SDS011;11064;47.102;15.452;2022-08-19T18:09:45;10.30;;;3.37;;
21804;SDS011;11064;47.102;15.452;2022-08-19T18:12:19;12.55;;;4.40;;
21804;SDS011;11064;47.102;15.452;2022-08-19T18:14:50;11.90;;;4.10;;
21804;SDS011;11064;47.102;15.452;2022-08-19T18:17:16;11.38;;;3.40;;
21804;SDS011;11064;47.102;15.452;2022-08-19T18:19:46;10.90;;;3.85;;
21804;SDS011;11064;47.102;15.452;2022-08-19T18:22:26;14.57;;;3.95;;
21804;SDS011;11064;47.102;15.452;2022-08-19T18:24:57;9.63;;;4.07;;
21804;SDS011;11064;47.102;15.452;2022-08-19T18:27:23;14.07;;;3.45;;
21804;SDS011;11064;47.102;15.452;2022-08-19T18:29:51;9.40;;;3.60;;
21804;SDS011;11064;47.102;15.452;2022-08-19T18:32:18;15.02;;;4.15;;
21804;SDS011;11064;47.102;15.452;2022-08-19T18:34:44;11.05;;;3.17;;
21804;SDS011;11064;47.102;15.452;2022-08-19T18:37:10;13.05;;;3.88;;
21804;SDS011;11064;47.102;15.452;2022-08-19T18:39:36;16.00;;;3.72;;
21804;SDS011;11064;47.102;15.452;2022-08-19T18:42:21;12.57;;;3.50;;
21804;SDS011;11064;47.102;15.452;2022-08-19T18:45:05;11.63;;;3.78;;
21804;SDS011;11064;47.102;15.452;2022-08-19T18:47:50;14.95;;;3.80;;
21804;SDS011;11064;47.102;15.452;2022-08-19T18:50:34;9.98;;;3.33;;
21804;SDS011;11064;47.102;15.452;2022-08-19T18:53:03;12.77;;;3.83;;
21804;SDS011;11064;47.102;15.452;2022-08-19T18:55:29;10.88;;;3.22;;
21804;SDS011;11064;47.102;15.452;2022-08-19T18:57:55;11.63;;;3.70;;